Berkshire Heights, Massachusetts
Current Conditions -  °F | °C
As of 8:54 AM on Thursday 23 Oct 2014 (Local Time) from KPSF Reporting Station
Light Rain Light Rain  
Wind Chill: 42°   Ceiling: 2000
Heat Index: 45°   Visibility: 8mi
Dew Point: 43°   Wind: 6mph
Humidity: 93%   Direction: 20°NNE
Pressure: 29.76"   Gusts: NA
Location:  42.1779°N, 73.3332°W
Report Text: KPSF 231254Z AUTO 02005KT 8SM -RA BKN020 OVC045 07/06 A2976 RMK AO2 RAB1156E29B31 SLP074 P0003 T00720061
Loading
Personal Weather Stations






























Interactive Weather Map
Tropical Storm Tracking
New forecast layout! Learn more

10-Day Weather Forecast

Advertisements
Track Severe Weather on mobile